Time;durP1;ratioP1;P1;durP2;ratioP2;P2;SDS_P1;SDS_P2;PMS_P1;PMS_P2;Temp;Humidity;BMP_temperature;BMP_pressure;BME280_temperature;BME280_humidity;BME280_pressure;Samples;Min_cycle;Max_cycle;Signal;HPM_P1;HPM_P2
2021/06/21 00:02:54;;;;;;;12.95;7.72;;;;;;;;;;4861185;29;20045;-68
2021/06/21 00:05:59;;;;;;;16.23;8.32;;;;;;;;;;4862879;29;20060;-68
2021/06/21 00:09:04;;;;;;;14.75;8.07;;;;;;;;;;4861866;29;20052;-68
2021/06/21 00:12:09;;;;;;;13.82;8.10;;;;;;;;;;4861465;29;20040;-68
2021/06/21 00:15:23;;;;;;;17.65;7.47;;;;;;;;;;4861910;29;20061;-69
2021/06/21 00:18:28;;;;;;;15.43;7.20;;;;;;;;;;4861597;29;20056;-68
2021/06/21 00:21:33;;;;;;;13.77;8.02;;;;;;;;;;4861616;29;20072;-68
2021/06/21 00:24:37;;;;;;;14.80;7.03;;;;;;;;;;4861428;29;20044;-68
2021/06/21 00:27:48;;;;;;;12.73;7.00;;;;;;;;;;4861568;29;20525;-67
2021/06/21 00:30:52;;;;;;;12.07;6.60;;;;;;;;;;4849931;29;20044;-68
2021/06/21 00:33:56;;;;;;;12.32;7.15;;;;;;;;;;4861070;29;20561;-66
2021/06/21 00:37:01;;;;;;;15.75;7.03;;;;;;;;;;4861688;29;20052;-68
2021/06/21 00:40:07;;;;;;;19.90;6.72;;;;;;;;;;4861073;29;20065;-68
2021/06/21 00:43:12;;;;;;;11.50;6.57;;;;;;;;;;4861224;29;20048;-67
2021/06/21 00:46:17;;;;;;;15.40;7.63;;;;;;;;;;4861327;29;20048;-67
2021/06/21 00:49:21;;;;;;;12.45;6.72;;;;;;;;;;4860861;29;20402;-67
2021/06/21 00:52:26;;;;;;;14.00;6.45;;;;;;;;;;4861122;29;20049;-68
2021/06/21 00:55:30;;;;;;;12.13;7.72;;;;;;;;;;4860980;29;20049;-67
2021/06/21 00:58:34;;;;;;;18.50;7.47;;;;;;;;;;4860764;29;20060;-68
2021/06/21 01:01:39;;;;;;;19.75;7.93;;;;;;;;;;4860758;29;20053;-68
2021/06/21 01:04:44;;;;;;;14.07;7.70;;;;;;;;;;4860921;29;20505;-67
2021/06/21 01:07:48;;;;;;;17.13;8.57;;;;;;;;;;4860653;29;20044;-67
2021/06/21 01:10:55;;;;;;;16.73;7.70;;;;;;;;;;4861127;29;20509;-68
2021/06/21 01:14:06;;;;;;;12.60;7.05;;;;;;;;;;4860445;29;20053;-67
2021/06/21 01:17:23;;;;;;;13.52;7.95;;;;;;;;;;4849637;29;20057;-68
2021/06/21 01:20:37;;;;;;;19.17;7.63;;;;;;;;;;4860919;29;20056;-67
2021/06/21 01:24:02;;;;;;;19.77;7.85;;;;;;;;;;4860931;29;20048;-68
2021/06/21 01:27:12;;;;;;;16.30;6.95;;;;;;;;;;4860881;29;20517;-67
2021/06/21 01:30:18;;;;;;;13.93;6.80;;;;;;;;;;4860382;29;20053;-67
2021/06/21 01:33:23;;;;;;;10.73;6.60;;;;;;;;;;4860675;29;20052;-68
2021/06/21 01:36:28;;;;;;;13.55;7.50;;;;;;;;;;4860231;29;20053;-69
2021/06/21 01:39:33;;;;;;;18.50;7.13;;;;;;;;;;4860546;29;20064;-68
2021/06/21 01:42:32;;;;;;;12.85;7.30;;;;;;;;;;4848670;29;20044;-67
2021/06/21 01:45:36;;;;;;;12.43;7.78;;;;;;;;;;4860573;29;20049;-68
2021/06/21 01:48:50;;;;;;;17.45;7.95;;;;;;;;;;4860337;29;20044;-68
2021/06/21 01:51:57;;;;;;;22.83;8.50;;;;;;;;;;4848553;29;20060;-67
2021/06/21 01:55:02;;;;;;;17.25;8.95;;;;;;;;;;4860454;29;20459;-69
2021/06/21 01:58:07;;;;;;;22.50;8.68;;;;;;;;;;4860008;29;20060;-69
2021/06/21 02:01:17;;;;;;;12.93;8.20;;;;;;;;;;4860418;29;20048;-67
2021/06/21 02:04:22;;;;;;;17.17;8.23;;;;;;;;;;4860156;29;20056;-68
2021/06/21 02:07:26;;;;;;;19.48;8.52;;;;;;;;;;4859932;29;20056;-67
2021/06/21 02:10:33;;;;;;;15.27;8.82;;;;;;;;;;4859857;29;20406;-69
2021/06/21 02:13:38;;;;;;;23.10;9.30;;;;;;;;;;4860111;29;20068;-69
2021/06/21 02:16:43;;;;;;;20.08;8.25;;;;;;;;;;4860237;29;20048;-68
2021/06/21 02:19:52;;;;;;;16.08;8.75;;;;;;;;;;4860093;29;20097;-67
2021/06/21 02:22:56;;;;;;;20.63;8.57;;;;;;;;;;4859583;29;20516;-68
2021/06/21 02:26:00;;;;;;;15.73;8.57;;;;;;;;;;4859280;29;20060;-68
2021/06/21 02:29:05;;;;;;;19.17;8.57;;;;;;;;;;4859592;29;20044;-69
2021/06/21 02:32:09;;;;;;;24.63;8.85;;;;;;;;;;4859615;29;20375;-68
2021/06/21 02:35:14;;;;;;;22.70;9.13;;;;;;;;;;4859667;29;20493;-68
2021/06/21 02:38:18;;;;;;;25.17;8.95;;;;;;;;;;4859374;29;20056;-68
2021/06/21 02:41:23;;;;;;;20.17;9.20;;;;;;;;;;4859734;29;20044;-67
2021/06/21 02:44:27;;;;;;;16.23;8.73;;;;;;;;;;4859236;29;20048;-68
2021/06/21 02:47:32;;;;;;;21.50;8.77;;;;;;;;;;4859408;29;20061;-68
2021/06/21 02:50:45;;;;;;;24.25;8.55;;;;;;;;;;4859270;29;20056;-67
2021/06/21 02:54:06;;;;;;;16.65;9.32;;;;;;;;;;4859671;29;20481;-68
2021/06/21 02:57:16;;;;;;;16.65;8.65;;;;;;;;;;4859217;29;20061;-69
2021/06/21 03:00:20;;;;;;;23.97;9.87;;;;;;;;;;4859250;29;20068;-67
2021/06/21 03:03:31;;;;;;;21.27;9.73;;;;;;;;;;4859395;29;20539;-68
2021/06/21 03:06:36;;;;;;;22.27;9.63;;;;;;;;;;4859286;29;20064;-67
2021/06/21 03:09:40;;;;;;;19.98;9.50;;;;;;;;;;4859194;29;20052;-67
2021/06/21 03:12:46;;;;;;;19.27;10.25;;;;;;;;;;4859413;29;20068;-68
2021/06/21 03:15:51;;;;;;;19.60;10.32;;;;;;;;;;4859446;29;20056;-68
2021/06/21 03:18:55;;;;;;;21.85;10.98;;;;;;;;;;4836852;29;20073;-68
2021/06/21 03:22:00;;;;;;;27.23;12.50;;;;;;;;;;4859157;29;20538;-68
2021/06/21 03:25:04;;;;;;;29.23;12.27;;;;;;;;;;4858970;29;20053;-68
2021/06/21 03:28:13;;;;;;;25.35;11.68;;;;;;;;;;4859124;29;20049;-68
2021/06/21 03:31:18;;;;;;;31.42;12.20;;;;;;;;;;4859238;29;20052;-68
2021/06/21 03:34:24;;;;;;;23.05;10.82;;;;;;;;;;4848427;29;20371;-68
2021/06/21 03:37:30;;;;;;;16.98;9.95;;;;;;;;;;4863237;29;20431;-67
2021/06/21 03:40:35;;;;;;;18.92;10.45;;;;;;;;;;4862854;29;20239;-67
2021/06/21 03:43:40;;;;;;;21.25;9.52;;;;;;;;;;4863436;29;20052;-68
2021/06/21 03:46:45;;;;;;;21.60;9.63;;;;;;;;;;4863194;29;20053;-68
2021/06/21 03:49:52;;;;;;;23.58;9.43;;;;;;;;;;4851966;29;20048;-68
2021/06/21 03:52:57;;;;;;;20.65;9.15;;;;;;;;;;4863731;29;20065;-68
2021/06/21 03:56:02;;;;;;;17.02;9.20;;;;;;;;;;4863426;29;20529;-67
2021/06/21 03:59:06;;;;;;;26.05;10.52;;;;;;;;;;4852170;29;20414;-68
2021/06/21 04:02:10;;;;;;;22.90;10.32;;;;;;;;;;4851831;29;20053;-68
2021/06/21 04:05:15;;;;;;;29.30;14.23;;;;;;;;;;4864065;29;20056;-68
2021/06/21 04:08:19;;;;;;;28.77;15.43;;;;;;;;;;4862826;29;20050;-67
2021/06/21 04:11:26;;;;;;;44.15;15.18;;;;;;;;;;4851785;29;20521;-69
2021/06/21 04:14:32;;;;;;;32.70;15.23;;;;;;;;;;4862866;29;20048;-69
2021/06/21 04:17:37;;;;;;;32.35;14.77;;;;;;;;;;4863294;29;20056;-68
2021/06/21 04:20:42;;;;;;;30.17;12.75;;;;;;;;;;4862786;29;20402;-68
2021/06/21 04:23:47;;;;;;;23.75;11.80;;;;;;;;;;4863337;29;20057;-69
2021/06/21 04:26:51;;;;;;;27.70;12.68;;;;;;;;;;4862334;29;20052;-68
2021/06/21 04:29:56;;;;;;;23.50;12.88;;;;;;;;;;4862467;29;20045;-68
2021/06/21 04:33:04;;;;;;;32.95;13.27;;;;;;;;;;4862432;29;20072;-67
2021/06/21 04:36:08;;;;;;;33.20;12.73;;;;;;;;;;4863077;29;20049;-67
2021/06/21 04:39:12;;;;;;;27.83;12.15;;;;;;;;;;4862237;29;20060;-68
2021/06/21 04:42:16;;;;;;;25.40;11.82;;;;;;;;;;4851469;29;20049;-67
2021/06/21 04:45:21;;;;;;;29.65;12.25;;;;;;;;;;4850744;29;20076;-69
2021/06/21 04:48:25;;;;;;;69.57;16.80;;;;;;;;;;4861774;29;20064;-66
2021/06/21 04:51:32;;;;;;;37.65;14.23;;;;;;;;;;4862425;29;20426;-70
2021/06/21 04:54:37;;;;;;;38.53;15.88;;;;;;;;;;4851276;29;20052;-67
2021/06/21 04:57:42;;;;;;;39.88;13.40;;;;;;;;;;4862035;29;20061;-68
2021/06/21 05:00:47;;;;;;;33.45;14.05;;;;;;;;;;4862496;29;20119;-68
2021/06/21 05:03:51;;;;;;;30.55;12.75;;;;;;;;;;4862164;29;20049;-67
2021/06/21 05:06:55;;;;;;;36.30;12.77;;;;;;;;;;4862313;29;20048;-68
2021/06/21 05:10:00;;;;;;;33.63;12.20;;;;;;;;;;4861588;29;20521;-67
2021/06/21 05:13:04;;;;;;;74.95;15.27;;;;;;;;;;4861430;29;20052;-67
2021/06/21 05:16:08;;;;;;;33.05;12.27;;;;;;;;;;4850406;29;20501;-69
2021/06/21 05:19:13;;;;;;;22.15;11.98;;;;;;;;;;4861287;29;20093;-68
2021/06/21 05:22:17;;;;;;;26.83;11.57;;;;;;;;;;4861806;29;20053;-68
2021/06/21 05:25:24;;;;;;;29.42;12.20;;;;;;;;;;4861113;29;20048;-68
2021/06/21 05:28:28;;;;;;;33.92;12.68;;;;;;;;;;4861908;29;20052;-69
2021/06/21 05:31:32;;;;;;;35.70;12.65;;;;;;;;;;4861507;29;20120;-67
2021/06/21 05:34:37;;;;;;;30.80;12.90;;;;;;;;;;4861912;29;20044;-68
2021/06/21 05:37:41;;;;;;;32.50;13.20;;;;;;;;;;4861636;29;20048;-69
2021/06/21 05:40:46;;;;;;;26.70;12.05;;;;;;;;;;4860989;29;20048;-68
2021/06/21 05:43:50;;;;;;;28.20;12.75;;;;;;;;;;4860553;29;20044;-68
2021/06/21 05:46:56;;;;;;;25.70;11.77;;;;;;;;;;4860771;29;20048;-68
2021/06/21 05:50:03;;;;;;;23.52;11.73;;;;;;;;;;4860210;29;20052;-62
2021/06/21 05:53:07;;;;;;;23.10;10.48;;;;;;;;;;4859670;29;20040;-63
2021/06/21 05:56:14;;;;;;;24.15;11.00;;;;;;;;;;4859737;29;20402;-62
2021/06/21 05:59:18;;;;;;;31.10;13.90;;;;;;;;;;4858791;29;20061;-62
2021/06/21 06:02:23;;;;;;;35.95;13.98;;;;;;;;;;4859588;29;20048;-61
2021/06/21 06:05:29;;;;;;;56.03;23.52;;;;;;;;;;4859912;29;20059;-62
2021/06/21 06:08:33;;;;;;;33.17;12.55;;;;;;;;;;4859752;29;20048;-61
2021/06/21 06:11:37;;;;;;;26.35;11.02;;;;;;;;;;4859637;29;20052;-63
2021/06/21 06:14:42;;;;;;;22.52;10.13;;;;;;;;;;4859277;29;20053;-62
2021/06/21 06:17:46;;;;;;;22.02;10.18;;;;;;;;;;4859718;29;20477;-64
2021/06/21 06:20:54;;;;;;;30.23;11.88;;;;;;;;;;4859471;29;20059;-64
2021/06/21 06:23:58;;;;;;;25.23;11.48;;;;;;;;;;4858641;29;20050;-63
2021/06/21 06:27:04;;;;;;;31.85;10.73;;;;;;;;;;4859911;29;20049;-63
2021/06/21 06:30:11;;;;;;;29.08;10.27;;;;;;;;;;4858942;29;20406;-63
2021/06/21 06:33:15;;;;;;;23.05;8.90;;;;;;;;;;4859303;29;20048;-63
2021/06/21 06:36:20;;;;;;;26.58;8.63;;;;;;;;;;4859241;29;20056;-64
2021/06/21 06:39:24;;;;;;;18.33;7.85;;;;;;;;;;4859058;29;20064;-64
2021/06/21 06:42:29;;;;;;;16.02;7.05;;;;;;;;;;4859016;29;20538;-64
2021/06/21 06:45:33;;;;;;;16.10;7.38;;;;;;;;;;4859327;29;20056;-63
2021/06/21 06:48:37;;;;;;;17.17;8.30;;;;;;;;;;4858493;29;20056;-65
2021/06/21 06:51:44;;;;;;;14.70;7.78;;;;;;;;;;4859289;29;20057;-64
2021/06/21 06:58:13;;;;;;;15.25;6.72;;;;;;;;;;4822099;29;20851;-62
2021/06/21 07:01:18;;;;;;;19.30;6.80;;;;;;;;;;4857903;29;20048;-63
2021/06/21 07:04:23;;;;;;;22.38;6.90;;;;;;;;;;4857783;29;20048;-63
2021/06/21 07:07:27;;;;;;;11.82;6.28;;;;;;;;;;4857435;29;20054;-63
2021/06/21 07:10:31;;;;;;;14.93;6.80;;;;;;;;;;4858331;29;20053;-63
2021/06/21 07:13:35;;;;;;;11.40;5.97;;;;;;;;;;4858822;29;20049;-62
2021/06/21 07:16:40;;;;;;;17.80;6.05;;;;;;;;;;4859262;29;20501;-63
2021/06/21 07:19:44;;;;;;;18.75;8.50;;;;;;;;;;4858359;29;20048;-63
2021/06/21 07:22:51;;;;;;;27.35;8.82;;;;;;;;;;4858574;29;20048;-64
2021/06/21 07:25:56;;;;;;;18.88;8.10;;;;;;;;;;4858889;29;20519;-62
2021/06/21 07:29:07;;;;;;;19.23;10.03;;;;;;;;;;4847772;29;20048;-62
2021/06/21 07:32:12;;;;;;;14.88;8.45;;;;;;;;;;4847091;29;20044;-62
2021/06/21 07:35:16;;;;;;;27.67;9.65;;;;;;;;;;4858596;29;20052;-63
2021/06/21 07:38:21;;;;;;;19.25;9.45;;;;;;;;;;4858467;29;20053;-64
2021/06/21 07:41:25;;;;;;;20.75;8.65;;;;;;;;;;4858466;29;20521;-63
2021/06/21 07:44:30;;;;;;;30.48;9.80;;;;;;;;;;4858615;29;20538;-63
2021/06/21 07:47:34;;;;;;;16.35;8.73;;;;;;;;;;4858360;29;20167;-63
2021/06/21 07:50:39;;;;;;;24.65;8.60;;;;;;;;;;4858623;29;20505;-64
2021/06/21 07:53:46;;;;;;;19.75;8.55;;;;;;;;;;4858505;29;20053;-64
2021/06/21 07:56:50;;;;;;;25.48;9.35;;;;;;;;;;4858068;29;20474;-63
2021/06/21 07:59:55;;;;;;;23.40;9.35;;;;;;;;;;4846932;29;20052;-62
2021/06/21 08:03:00;;;;;;;19.17;7.93;;;;;;;;;;4858255;29;20044;-63
2021/06/21 08:06:07;;;;;;;21.92;8.30;;;;;;;;;;4858602;29;20053;-63
2021/06/21 08:09:11;;;;;;;31.23;8.85;;;;;;;;;;4856886;29;20036;-62
2021/06/21 08:12:15;;;;;;;26.58;9.38;;;;;;;;;;4858255;29;20537;-63
2021/06/21 08:15:19;;;;;;;34.08;9.30;;;;;;;;;;4857711;29;20048;-62
2021/06/21 08:18:24;;;;;;;32.67;8.27;;;;;;;;;;4857790;29;20064;-63
2021/06/21 08:21:28;;;;;;;29.17;8.75;;;;;;;;;;4858303;29;20049;-64
2021/06/21 08:24:32;;;;;;;21.63;8.82;;;;;;;;;;4849514;29;20052;-63
2021/06/21 08:27:39;;;;;;;27.67;8.43;;;;;;;;;;4861455;29;20045;-62
2021/06/21 08:30:46;;;;;;;28.27;7.03;;;;;;;;;;4861174;29;20075;-62
2021/06/21 08:33:50;;;;;;;30.15;8.23;;;;;;;;;;4861543;29;20056;-63
2021/06/21 08:36:54;;;;;;;26.15;7.25;;;;;;;;;;4860935;29;20053;-64
2021/06/21 08:39:58;;;;;;;31.40;7.25;;;;;;;;;;4860794;29;20056;-62
2021/06/21 08:43:03;;;;;;;27.50;7.30;;;;;;;;;;4861338;29;20115;-61
2021/06/21 08:46:11;;;;;;;34.20;7.32;;;;;;;;;;4850133;29;20410;-63
2021/06/21 08:49:15;;;;;;;28.63;7.60;;;;;;;;;;4861179;29;20044;-61
2021/06/21 08:52:19;;;;;;;28.15;7.30;;;;;;;;;;4861007;29;20048;-61
2021/06/21 08:55:24;;;;;;;27.02;7.28;;;;;;;;;;4860979;29;20065;-64
2021/06/21 08:58:29;;;;;;;29.55;8.68;;;;;;;;;;4849470;29;20056;-64
2021/06/21 09:01:33;;;;;;;48.38;9.45;;;;;;;;;;4849704;29;20057;-64
2021/06/21 09:04:39;;;;;;;28.15;8.52;;;;;;;;;;4860894;29;20052;-64
2021/06/21 09:07:44;;;;;;;37.92;7.78;;;;;;;;;;4860903;29;20053;-64
2021/06/21 09:10:51;;;;;;;37.33;8.65;;;;;;;;;;4860561;29;20050;-62
2021/06/21 09:13:56;;;;;;;37.83;8.48;;;;;;;;;;4860610;29;20052;-62
2021/06/21 09:17:09;;;;;;;39.15;8.32;;;;;;;;;;4860711;29;20072;-63
2021/06/21 09:20:16;;;;;;;24.63;6.88;;;;;;;;;;4860293;29;20056;-61
2021/06/21 09:23:20;;;;;;;24.00;7.15;;;;;;;;;;4860649;29;20521;-62
2021/06/21 09:26:28;;;;;;;32.92;7.55;;;;;;;;;;4860528;29;20410;-65
2021/06/21 09:29:42;;;;;;;28.55;7.40;;;;;;;;;;4848979;29;20053;-67
2021/06/21 09:32:48;;;;;;;39.17;7.65;;;;;;;;;;4860153;29;20053;-64
2021/06/21 09:35:52;;;;;;;31.88;7.07;;;;;;;;;;4859110;29;20057;-64
2021/06/21 09:39:26;;;;;;;21.38;6.55;;;;;;;;;;4859336;29;20060;-62
2021/06/21 09:42:30;;;;;;;35.97;7.38;;;;;;;;;;4847141;29;20049;-62
2021/06/21 09:45:35;;;;;;;31.88;6.93;;;;;;;;;;4860023;29;20510;-63
2021/06/21 09:48:39;;;;;;;23.58;6.25;;;;;;;;;;4859898;29;20048;-63
2021/06/21 09:51:44;;;;;;;25.00;6.70;;;;;;;;;;4860169;29;20053;-63
2021/06/21 09:54:48;;;;;;;42.25;8.35;;;;;;;;;;4859840;29;20052;-64
2021/06/21 09:58:11;;;;;;;18.45;5.68;;;;;;;;;;4848645;29;20052;-63
2021/06/21 10:01:16;;;;;;;43.03;8.20;;;;;;;;;;4859989;29;20060;-65
2021/06/21 10:04:24;;;;;;;32.22;7.25;;;;;;;;;;4859214;29;20048;-64
2021/06/21 10:07:32;;;;;;;23.70;6.72;;;;;;;;;;4858351;29;20040;-63
2021/06/21 10:10:36;;;;;;;34.50;7.55;;;;;;;;;;4859511;29;20064;-63
2021/06/21 10:13:42;;;;;;;18.92;6.65;;;;;;;;;;4859766;29;20075;-63
2021/06/21 10:16:48;;;;;;;27.20;7.28;;;;;;;;;;4859889;29;20049;-63
2021/06/21 10:19:53;;;;;;;20.60;6.35;;;;;;;;;;4859361;29;20769;-65
2021/06/21 10:22:58;;;;;;;44.42;8.07;;;;;;;;;;4859399;29;20069;-64
2021/06/21 10:26:03;;;;;;;26.45;7.70;;;;;;;;;;4859285;29;20048;-63
2021/06/21 10:29:08;;;;;;;33.35;7.40;;;;;;;;;;4857939;29;20044;-63
2021/06/21 10:32:13;;;;;;;23.13;7.32;;;;;;;;;;4859392;29;20040;-63
2021/06/21 10:35:18;;;;;;;23.08;7.43;;;;;;;;;;4859507;29;20052;-64
2021/06/21 10:38:26;;;;;;;31.98;6.53;;;;;;;;;;4859101;29;20048;-63
2021/06/21 10:41:30;;;;;;;33.58;6.95;;;;;;;;;;4859139;29;20056;-64
2021/06/21 10:44:38;;;;;;;22.50;6.38;;;;;;;;;;4859183;29;20049;-65
2021/06/21 10:47:43;;;;;;;26.45;6.93;;;;;;;;;;4858714;29;20057;-65
2021/06/21 10:50:49;;;;;;;26.02;7.10;;;;;;;;;;4859360;29;20071;-63
2021/06/21 10:53:54;;;;;;;31.70;7.15;;;;;;;;;;4859173;29;20049;-63
2021/06/21 10:56:59;;;;;;;22.05;6.80;;;;;;;;;;4858755;29;20065;-63
2021/06/21 11:00:11;;;;;;;28.98;6.40;;;;;;;;;;4858463;29;20053;-65
2021/06/21 11:03:26;;;;;;;18.65;5.45;;;;;;;;;;4858867;29;20056;-64
2021/06/21 11:06:33;;;;;;;22.40;6.25;;;;;;;;;;4859092;29;20045;-64
2021/06/21 11:09:41;;;;;;;29.67;7.47;;;;;;;;;;4858532;29;20036;-63
2021/06/21 11:12:45;;;;;;;30.65;6.13;;;;;;;;;;4859431;29;20052;-63
2021/06/21 11:16:08;;;;;;;27.75;6.50;;;;;;;;;;4858631;29;20049;-64
2021/06/21 11:19:21;;;;;;;27.67;5.95;;;;;;;;;;4858510;29;20052;-64
2021/06/21 11:22:46;;;;;;;33.47;6.82;;;;;;;;;;4858861;29;20057;-63
2021/06/21 11:25:50;;;;;;;18.35;5.53;;;;;;;;;;4858802;29;20060;-63
2021/06/21 11:28:55;;;;;;;28.95;5.95;;;;;;;;;;4858553;29;20064;-63
2021/06/21 11:32:00;;;;;;;33.20;5.97;;;;;;;;;;4858557;29;20383;-65
2021/06/21 11:35:04;;;;;;;24.65;5.65;;;;;;;;;;4858710;29;20120;-64
2021/06/21 11:38:24;;;;;;;21.92;5.50;;;;;;;;;;4858723;29;20426;-63
2021/06/21 11:41:29;;;;;;;23.58;5.25;;;;;;;;;;4858676;29;20541;-63
2021/06/21 11:44:37;;;;;;;19.55;5.43;;;;;;;;;;4858699;29;20048;-64
2021/06/21 11:47:41;;;;;;;30.48;5.82;;;;;;;;;;4858764;29;20052;-64
2021/06/21 11:50:46;;;;;;;15.20;4.90;;;;;;;;;;4858340;29;20379;-62
2021/06/21 11:53:50;;;;;;;17.15;5.72;;;;;;;;;;4858305;29;20048;-65
2021/06/21 11:56:56;;;;;;;23.17;5.63;;;;;;;;;;4858347;29;20060;-63
2021/06/21 12:00:05;;;;;;;27.13;5.68;;;;;;;;;;4862156;29;20071;-63
2021/06/21 12:03:16;;;;;;;29.27;5.47;;;;;;;;;;4862055;29;20044;-64
2021/06/21 12:06:20;;;;;;;27.45;5.72;;;;;;;;;;4862059;29;20049;-63
2021/06/21 12:09:24;;;;;;;29.25;6.20;;;;;;;;;;4861490;29;20053;-63
2021/06/21 12:12:34;;;;;;;23.73;5.78;;;;;;;;;;4862145;29;20116;-63
2021/06/21 12:15:40;;;;;;;27.27;5.47;;;;;;;;;;4862426;29;20409;-63
2021/06/21 12:18:52;;;;;;;25.90;5.47;;;;;;;;;;4861897;29;20139;-64
2021/06/21 12:21:57;;;;;;;28.83;6.13;;;;;;;;;;4861822;29;20044;-64
2021/06/21 12:25:01;;;;;;;21.10;5.75;;;;;;;;;;4861869;29;20536;-64
2021/06/21 12:28:22;;;;;;;21.42;6.18;;;;;;;;;;4861522;29;20047;-66
2021/06/21 12:31:27;;;;;;;22.60;4.93;;;;;;;;;;4861473;29;20506;-64
2021/06/21 12:34:51;;;;;;;29.52;5.43;;;;;;;;;;4861560;29;20052;-64
2021/06/21 12:37:56;;;;;;;21.88;5.50;;;;;;;;;;4861313;29;20057;-65
2021/06/21 12:41:09;;;;;;;20.35;4.75;;;;;;;;;;4861534;29;20120;-64
2021/06/21 12:44:14;;;;;;;23.85;4.97;;;;;;;;;;4861128;29;20054;-65
2021/06/21 12:47:20;;;;;;;28.50;5.88;;;;;;;;;;4861746;29;20052;-66
2021/06/21 12:50:26;;;;;;;24.52;5.85;;;;;;;;;;4861127;29;20057;-62
2021/06/21 12:53:31;;;;;;;23.63;7.03;;;;;;;;;;4849733;29;20044;-62
2021/06/21 12:56:37;;;;;;;30.08;5.82;;;;;;;;;;4860892;29;20060;-62
2021/06/21 12:59:42;;;;;;;19.85;5.22;;;;;;;;;;4860931;29;20077;-62
2021/06/21 13:02:47;;;;;;;27.55;5.78;;;;;;;;;;4860823;29;20056;-61
2021/06/21 13:05:56;;;;;;;23.40;5.32;;;;;;;;;;4860934;29;20048;-62
2021/06/21 13:09:03;;;;;;;31.40;5.55;;;;;;;;;;4860746;29;20183;-62
2021/06/21 13:12:08;;;;;;;26.20;5.95;;;;;;;;;;4860948;29;20048;-62
2021/06/21 13:15:15;;;;;;;19.17;4.75;;;;;;;;;;4860953;29;20056;-61
2021/06/21 13:18:19;;;;;;;17.83;5.03;;;;;;;;;;4860742;29;20044;-61
2021/06/21 13:21:36;;;;;;;25.42;6.25;;;;;;;;;;4861263;29;20391;-62
2021/06/21 13:24:41;;;;;;;17.08;4.88;;;;;;;;;;4860888;29;20052;-62
2021/06/21 13:27:50;;;;;;;23.88;5.80;;;;;;;;;;4860802;29;20048;-62
2021/06/21 13:31:01;;;;;;;26.23;5.30;;;;;;;;;;4860700;29;20056;-62
2021/06/21 13:34:06;;;;;;;18.63;4.95;;;;;;;;;;4861006;29;20049;-62
2021/06/21 13:37:11;;;;;;;16.10;4.70;;;;;;;;;;4861025;29;20432;-61
2021/06/21 13:40:18;;;;;;;20.95;4.57;;;;;;;;;;4849158;29;20064;-61
2021/06/21 13:43:23;;;;;;;26.20;4.85;;;;;;;;;;4861012;29;20056;-61
2021/06/21 13:46:38;;;;;;;19.25;5.07;;;;;;;;;;4860434;29;20056;-62
2021/06/21 13:49:58;;;;;;;20.67;5.30;;;;;;;;;;4860027;29;20045;-62
2021/06/21 13:53:04;;;;;;;29.75;5.50;;;;;;;;;;4860291;29;20060;-61
2021/06/21 13:56:10;;;;;;;26.85;5.53;;;;;;;;;;4859844;29;20056;-61
2021/06/21 13:59:14;;;;;;;25.80;6.15;;;;;;;;;;4848482;29;20052;-61
2021/06/21 14:02:35;;;;;;;20.95;5.03;;;;;;;;;;4859860;29;20041;-62
2021/06/21 14:05:42;;;;;;;20.63;5.75;;;;;;;;;;4859768;29;20512;-62
2021/06/21 14:08:47;;;;;;;14.45;5.05;;;;;;;;;;4859467;29;20049;-62
2021/06/21 14:11:51;;;;;;;22.70;5.55;;;;;;;;;;4860017;29;20068;-61
2021/06/21 14:14:55;;;;;;;18.30;5.30;;;;;;;;;;4859858;29;20064;-63
2021/06/21 14:17:59;;;;;;;21.50;5.38;;;;;;;;;;4859678;29;20057;-61
2021/06/21 14:21:05;;;;;;;25.73;6.38;;;;;;;;;;4858613;29;20410;-61
2021/06/21 14:24:13;;;;;;;29.88;6.60;;;;;;;;;;4859809;29;20052;-63
2021/06/21 14:27:18;;;;;;;17.27;5.47;;;;;;;;;;4859218;29;20057;-61
2021/06/21 14:30:22;;;;;;;17.60;5.97;;;;;;;;;;4859551;29;20057;-62
2021/06/21 14:33:27;;;;;;;21.48;5.70;;;;;;;;;;4847746;29;20054;-63
2021/06/21 14:36:31;;;;;;;39.28;7.47;;;;;;;;;;4847835;29;20265;-62
2021/06/21 14:39:35;;;;;;;22.88;5.55;;;;;;;;;;4858859;29;20056;-61
2021/06/21 14:42:40;;;;;;;21.58;5.97;;;;;;;;;;4859495;29;20045;-61
2021/06/21 14:45:45;;;;;;;24.13;5.65;;;;;;;;;;4859307;29;20048;-62
2021/06/21 14:48:53;;;;;;;25.77;5.80;;;;;;;;;;4858792;29;20048;-60
2021/06/21 14:51:57;;;;;;;20.80;6.18;;;;;;;;;;4859132;29;20062;-62
2021/06/21 14:55:04;;;;;;;23.42;5.03;;;;;;;;;;4858839;29;20052;-60
2021/06/21 14:58:11;;;;;;;15.50;5.05;;;;;;;;;;4859284;29;20052;-62
2021/06/21 15:01:15;;;;;;;20.60;6.40;;;;;;;;;;4858590;29;20048;-61
2021/06/21 15:04:20;;;;;;;24.90;6.28;;;;;;;;;;4858974;29;20052;-60
2021/06/21 15:07:24;;;;;;;19.58;6.00;;;;;;;;;;4858997;29;20049;-62
2021/06/21 15:10:30;;;;;;;20.55;5.97;;;;;;;;;;4858953;29;20053;-60
2021/06/21 15:13:34;;;;;;;26.10;6.68;;;;;;;;;;4858644;29;20052;-59
2021/06/21 15:16:39;;;;;;;27.85;6.47;;;;;;;;;;4847297;29;20064;-61
2021/06/21 15:19:44;;;;;;;26.95;6.22;;;;;;;;;;4858302;29;20060;-62
2021/06/21 15:22:49;;;;;;;19.05;5.55;;;;;;;;;;4858978;29;20544;-64
2021/06/21 15:25:55;;;;;;;25.63;6.68;;;;;;;;;;4858984;29;20057;-61
2021/06/21 15:29:01;;;;;;;26.70;6.22;;;;;;;;;;4858720;29;20155;-63
2021/06/21 15:32:05;;;;;;;19.42;6.03;;;;;;;;;;4849118;29;20045;-63
2021/06/21 15:35:11;;;;;;;24.77;5.80;;;;;;;;;;4862554;29;20048;-61
2021/06/21 15:38:17;;;;;;;25.98;6.72;;;;;;;;;;4862159;29;20497;-62
2021/06/21 15:41:21;;;;;;;23.77;5.65;;;;;;;;;;4861747;29;20056;-60
2021/06/21 15:44:26;;;;;;;21.05;5.70;;;;;;;;;;4861575;29;20048;-62
2021/06/21 15:47:31;;;;;;;14.65;5.60;;;;;;;;;;4862009;29;20052;-62
2021/06/21 15:50:36;;;;;;;17.48;5.50;;;;;;;;;;4861855;29;20048;-61
2021/06/21 15:53:41;;;;;;;17.58;5.40;;;;;;;;;;4862049;29;20049;-62
2021/06/21 15:56:45;;;;;;;23.67;5.80;;;;;;;;;;4839559;29;20235;-61
2021/06/21 15:59:50;;;;;;;16.98;5.82;;;;;;;;;;4861839;29;20056;-61
2021/06/21 16:02:54;;;;;;;21.25;5.53;;;;;;;;;;4850567;29;20508;-61
2021/06/21 16:06:00;;;;;;;27.92;5.43;;;;;;;;;;4861968;29;20494;-61
2021/06/21 16:09:06;;;;;;;16.60;5.07;;;;;;;;;;4861655;29;20041;-60
2021/06/21 16:12:10;;;;;;;20.08;4.78;;;;;;;;;;4861938;29;20060;-62
2021/06/21 16:15:15;;;;;;;25.35;6.13;;;;;;;;;;4850053;29;20115;-60
2021/06/21 16:18:20;;;;;;;25.52;5.38;;;;;;;;;;4861573;29;20048;-62
2021/06/21 16:21:25;;;;;;;20.33;5.75;;;;;;;;;;4850101;29;20068;-59
2021/06/21 16:24:30;;;;;;;15.65;5.35;;;;;;;;;;4861655;29;20399;-61
2021/06/21 16:27:35;;;;;;;19.38;4.82;;;;;;;;;;4861683;29;20057;-60
2021/06/21 16:30:40;;;;;;;23.00;6.18;;;;;;;;;;4861358;29;20048;-62
2021/06/21 16:33:44;;;;;;;28.75;5.40;;;;;;;;;;4850201;29;20057;-61
2021/06/21 16:36:49;;;;;;;26.13;5.97;;;;;;;;;;4861303;29;20505;-61
2021/06/21 16:39:55;;;;;;;17.15;5.68;;;;;;;;;;4861383;29;20406;-60
2021/06/21 16:43:00;;;;;;;21.90;5.70;;;;;;;;;;4848949;29;20052;-62
2021/06/21 16:46:05;;;;;;;20.75;5.65;;;;;;;;;;4861144;29;20052;-59
2021/06/21 16:49:11;;;;;;;34.50;6.18;;;;;;;;;;4860456;29;20123;-60
2021/06/21 16:52:15;;;;;;;24.58;5.50;;;;;;;;;;4860383;29;20056;-61
2021/06/21 16:55:20;;;;;;;30.23;6.22;;;;;;;;;;4860467;29;20049;-60
2021/06/21 16:58:24;;;;;;;22.27;6.05;;;;;;;;;;4861152;29;20065;-60
2021/06/21 17:01:30;;;;;;;28.20;6.10;;;;;;;;;;4860606;29;20060;-61
2021/06/21 17:04:34;;;;;;;16.45;5.15;;;;;;;;;;4849112;29;20048;-62
2021/06/21 17:07:39;;;;;;;31.67;5.47;;;;;;;;;;4848232;29;20521;-63
2021/06/21 17:10:43;;;;;;;19.55;6.03;;;;;;;;;;4860467;29;20052;-61
2021/06/21 17:13:48;;;;;;;25.13;6.80;;;;;;;;;;4860450;29;20057;-63
2021/06/21 17:16:52;;;;;;;28.52;6.47;;;;;;;;;;4860749;29;20049;-63
2021/06/21 17:19:57;;;;;;;27.70;7.38;;;;;;;;;;4848310;29;20510;-61
2021/06/21 17:23:03;;;;;;;38.33;6.25;;;;;;;;;;4859966;29;20048;-62
2021/06/21 17:26:07;;;;;;;32.58;5.78;;;;;;;;;;4860268;29;20502;-62
2021/06/21 17:29:12;;;;;;;31.40;6.47;;;;;;;;;;4859753;29;20053;-62
2021/06/21 17:32:16;;;;;;;23.63;5.80;;;;;;;;;;4847601;29;20510;-64
2021/06/21 17:35:21;;;;;;;38.20;6.13;;;;;;;;;;4859206;29;20057;-61
2021/06/21 17:38:26;;;;;;;24.63;5.65;;;;;;;;;;4848954;29;20041;-61
2021/06/21 17:41:30;;;;;;;31.67;6.10;;;;;;;;;;4860524;29;20060;-62
2021/06/21 17:44:35;;;;;;;19.42;4.85;;;;;;;;;;4859963;29;20051;-62
2021/06/21 17:47:39;;;;;;;23.67;5.35;;;;;;;;;;4860089;29;20078;-60
2021/06/21 17:50:43;;;;;;;32.95;6.90;;;;;;;;;;4860169;29;20052;-62
2021/06/21 17:53:48;;;;;;;33.15;6.60;;;;;;;;;;4860053;29;20056;-62
2021/06/21 17:56:53;;;;;;;25.65;7.80;;;;;;;;;;4859799;29;20060;-62
2021/06/21 17:59:57;;;;;;;23.50;7.18;;;;;;;;;;4859833;29;20068;-61
2021/06/21 18:03:02;;;;;;;27.50;8.45;;;;;;;;;;4848523;29;20056;-64
2021/06/21 18:06:06;;;;;;;31.17;8.80;;;;;;;;;;4859809;29;20529;-62
2021/06/21 18:09:11;;;;;;;26.23;7.75;;;;;;;;;;4859566;29;20478;-61
2021/06/21 18:12:15;;;;;;;31.90;7.88;;;;;;;;;;4859856;29;20061;-62
2021/06/21 18:15:19;;;;;;;25.38;7.55;;;;;;;;;;4859761;29;20045;-63
2021/06/21 18:18:24;;;;;;;28.60;6.70;;;;;;;;;;4858984;29;20052;-64
2021/06/21 18:21:29;;;;;;;33.08;9.45;;;;;;;;;;4859449;29;20060;-63